Time;durP1;ratioP1;P1;durP2;ratioP2;P2;SDS_P1;SDS_P2;PMS_P1;PMS_P2;Temp;Humidity;BMP_temperature;BMP_pressure;BME280_temperature;BME280_humidity;BME280_pressure;Samples;Min_cycle;Max_cycle;Signal;HPM_P1;HPM_P2
2023/04/02 00:01:38;;;;;;;8.85;4.93;;;5.20;99.90;;;;;;5050790;28;20102;-67
2023/04/02 00:04:13;;;;;;;8.73;4.93;;;5.10;99.90;;;;;;5048851;28;20045;-66
2023/04/02 00:06:43;;;;;;;9.30;4.65;;;5.10;99.90;;;;;;5049736;28;20041;-67
2023/04/02 00:09:12;;;;;;;7.55;4.97;;;5.10;99.90;;;;;;5050736;28;20044;-67
2023/04/02 00:11:42;;;;;;;9.88;5.15;;;5.00;99.90;;;;;;5048798;28;20045;-67
2023/04/02 00:14:32;;;;;;;8.43;5.28;;;5.00;99.90;;;;;;5049263;28;20324;-66
2023/04/02 00:16:59;;;;;;;;;;;5.00;99.90;;;;;;5025984;28;20138;-67
2023/04/02 00:19:36;;;;;;;8.00;4.97;;;5.00;99.90;;;;;;5050036;28;19924;-67
2023/04/02 00:22:06;;;;;;;6.70;4.57;;;5.00;99.90;;;;;;5049273;28;20064;-66
2023/04/02 00:24:32;;;;;;;11.23;5.28;;;5.00;99.90;;;;;;5048890;28;20064;-66
2023/04/02 00:26:58;;;;;;;10.02;5.18;;;5.00;99.90;;;;;;5050366;28;20045;-67
2023/04/02 00:29:24;;;;;;;10.07;5.13;;;5.00;99.90;;;;;;5049105;28;20055;-66
2023/04/02 00:31:52;;;;;;;6.00;4.13;;;5.00;99.90;;;;;;5049820;28;20045;-66
2023/04/02 00:34:22;;;;;;;10.38;5.25;;;4.90;99.90;;;;;;5049227;28;20049;-66
2023/04/02 00:36:49;;;;;;;;;;;4.90;99.90;;;;;;5050700;28;20432;-66
2023/04/02 00:39:25;;;;;;;9.35;5.30;;;5.00;99.90;;;;;;5049321;28;19970;-66
2023/04/02 00:42:03;;;;;;;7.75;4.40;;;4.90;99.90;;;;;;5050707;28;20090;-66
2023/04/02 00:44:36;;;;;;;7.00;4.85;;;4.90;99.90;;;;;;5048986;28;20037;-66
2023/04/02 00:47:14;;;;;;;9.27;4.55;;;4.90;99.90;;;;;;5048211;28;20071;-66
2023/04/02 00:49:40;;;;;;;9.38;5.30;;;4.80;99.90;;;;;;5048519;28;20519;-67
2023/04/02 00:52:10;;;;;;;8.10;4.80;;;4.80;99.90;;;;;;5048494;28;20123;-66
2023/04/02 00:54:47;;;;;;;6.85;4.78;;;4.70;99.90;;;;;;5048375;28;20366;-66
2023/04/02 00:57:24;;;;;;;6.28;4.57;;;4.70;99.90;;;;;;5048522;28;20051;-67
2023/04/02 01:00:14;;;;;;;7.20;4.65;;;4.70;99.90;;;;;;5049403;28;20083;-66
2023/04/02 01:02:41;;;;;;;6.68;4.45;;;4.60;99.90;;;;;;5048618;28;20041;-67
2023/04/02 01:05:16;;;;;;;7.78;4.45;;;4.60;99.90;;;;;;5048369;28;20490;-66
2023/04/02 01:08:00;;;;;;;5.65;4.40;;;4.60;99.90;;;;;;5048218;28;20429;-66
2023/04/02 01:10:34;;;;;;;8.57;4.60;;;4.60;99.90;;;;;;5049571;28;20051;-67
2023/04/02 01:13:18;;;;;;;8.27;4.20;;;4.60;99.90;;;;;;5049416;28;20041;-67
2023/04/02 01:16:18;;;;;;;9.10;6.90;;;4.60;99.90;;;;;;5049179;28;20060;-67
2023/04/02 01:18:55;;;;;;;8.10;3.92;;;4.60;99.90;;;;;;5043762;28;20055;-66
2023/04/02 01:21:45;;;;;;;8.23;3.90;;;4.60;99.90;;;;;;5031268;28;20044;-66
2023/04/02 01:24:14;;;;;;;6.75;4.55;;;4.50;99.90;;;;;;5049543;28;20413;-66
2023/04/02 01:26:57;;;;;;;7.78;4.55;;;4.50;99.90;;;;;;5048309;28;20570;-66
2023/04/02 01:29:36;;;;;;;8.63;3.92;;;4.50;99.90;;;;;;5049455;28;20045;-66
2023/04/02 01:32:05;;;;;;;6.30;4.00;;;4.40;99.90;;;;;;5048258;28;20114;-66
2023/04/02 01:34:32;;;;;;;11.05;5.55;;;4.40;99.90;;;;;;5081844;28;20103;-66
2023/04/02 01:37:16;;;;;;;8.35;4.65;;;4.30;99.90;;;;;;5049574;28;20068;-66
2023/04/02 01:40:26;;;;;;;7.30;4.65;;;4.30;99.90;;;;;;5048450;28;20417;-66
2023/04/02 01:43:00;;;;;;;8.45;4.72;;;4.30;99.90;;;;;;5029186;28;20059;-66
2023/04/02 01:45:28;;;;;;;8.38;4.70;;;4.30;99.90;;;;;;5048367;28;20116;-66
2023/04/02 01:47:54;;;;;;;8.20;4.28;;;4.20;99.90;;;;;;5049752;28;20037;-66
2023/04/02 01:50:32;;;;;;;8.40;4.80;;;4.20;99.90;;;;;;5048450;28;20501;-67
2023/04/02 01:53:05;;;;;;;9.13;4.97;;;4.10;99.90;;;;;;5051888;28;20048;-66
2023/04/02 01:55:34;;;;;;;7.85;4.55;;;4.10;99.90;;;;;;5052286;28;20067;-66
2023/04/02 01:58:01;;;;;;;8.07;3.88;;;4.00;99.90;;;;;;5052223;28;20424;-66
2023/04/02 02:00:29;;;;;;;5.82;3.70;;;4.00;99.90;;;;;;5052166;28;20451;-66
2023/04/02 02:02:55;;;;;;;6.60;3.70;;;3.90;99.90;;;;;;5052051;28;20433;-67
2023/04/02 02:05:23;;;;;;;5.90;3.47;;;3.80;99.90;;;;;;5053505;28;20045;-67
2023/04/02 02:07:49;;;;;;;10.00;3.75;;;3.70;99.90;;;;;;5053529;28;20060;-67
2023/04/02 02:10:24;;;;;;;5.60;3.67;;;3.50;99.90;;;;;;5053102;28;20490;-67
2023/04/02 02:12:51;;;;;;;8.38;3.33;;;3.40;99.90;;;;;;5035345;28;20054;-66
2023/04/02 02:15:21;;;;;;;8.07;3.33;;;3.30;99.90;;;;;;5051891;28;20033;-67
2023/04/02 02:17:48;;;;;;;8.32;3.50;;;3.20;99.90;;;;;;5052705;28;20512;-66
2023/04/02 02:20:15;;;;;;;7.07;3.67;;;3.10;99.90;;;;;;5051823;28;20497;-66
2023/04/02 02:22:49;;;;;;;6.60;3.70;;;3.00;99.90;;;;;;5053256;28;20398;-66
2023/04/02 02:25:23;;;;;;;8.38;3.15;;;2.90;99.90;;;;;;5052713;28;20425;-66
2023/04/02 02:28:20;;;;;;;7.80;3.55;;;2.80;99.90;;;;;;5052119;28;20044;-67
2023/04/02 02:31:00;;;;;;;8.15;3.50;;;2.70;99.90;;;;;;5051961;28;20048;-67
2023/04/02 02:33:36;;;;;;;9.60;3.53;;;2.70;99.90;;;;;;5051741;28;20505;-67
2023/04/02 02:36:18;;;;;;;8.93;3.90;;;2.60;99.90;;;;;;5053117;28;20341;-67
2023/04/02 02:38:49;;;;;;;7.30;2.97;;;2.60;99.90;;;;;;5052206;28;20077;-67
2023/04/02 02:41:40;;;;;;;9.18;3.85;;;2.50;99.90;;;;;;5052876;28;20079;-67
2023/04/02 02:44:09;;;;;;;5.90;3.05;;;2.50;99.90;;;;;;5035074;28;20051;-67
2023/04/02 02:46:39;;;;;;;6.70;3.42;;;2.40;99.90;;;;;;5051554;28;20040;-67
2023/04/02 02:49:05;;;;;;;7.50;3.40;;;2.40;99.90;;;;;;5052098;28;20444;-67
2023/04/02 02:51:48;;;;;;;11.48;4.00;;;2.40;99.90;;;;;;5053212;28;20080;-67
2023/04/02 02:54:16;;;;;;;12.25;3.88;;;2.30;99.90;;;;;;5051563;28;20041;-67
2023/04/02 02:56:48;;;;;;;8.60;3.88;;;2.30;99.90;;;;;;5051643;28;20043;-67
2023/04/02 02:59:15;;;;;;;6.97;3.33;;;2.20;99.90;;;;;;5052370;28;20041;-66
2023/04/02 03:01:43;;;;;;;5.78;3.17;;;2.20;99.90;;;;;;5050729;28;20481;-66
2023/04/02 03:04:09;;;;;;;6.25;3.25;;;2.20;99.90;;;;;;5051165;28;20123;-67
2023/04/02 03:06:35;;;;;;;8.32;3.25;;;2.10;99.90;;;;;;5034955;28;20428;-67
2023/04/02 03:09:39;;;;;;;6.43;3.15;;;2.10;99.90;;;;;;5051151;28;20545;-67
2023/04/02 03:12:29;;;;;;;7.80;3.30;;;2.00;99.90;;;;;;5044906;28;20049;-66
2023/04/02 03:15:15;;;;;;;4.85;2.50;;;2.00;99.90;;;;;;5050400;28;20485;-66
2023/04/02 03:17:54;;;;;;;6.65;2.72;;;2.00;99.90;;;;;;5052110;28;20045;-67
2023/04/02 03:20:36;;;;;;;8.05;3.38;;;1.90;99.90;;;;;;5050637;28;20059;-67
2023/04/02 03:23:19;;;;;;;7.15;3.67;;;1.90;99.90;;;;;;5051049;28;20420;-67
2023/04/02 03:25:59;;;;;;;10.38;3.75;;;1.90;99.90;;;;;;5051961;28;20048;-67
2023/04/02 03:28:30;;;;;;;6.15;2.65;;;1.80;99.90;;;;;;5050732;28;20056;-67
2023/04/02 03:31:26;;;;;;;4.88;2.40;;;1.80;99.90;;;;;;5052147;28;20117;-67
2023/04/02 03:34:00;;;;;;;7.43;2.15;;;1.80;99.90;;;;;;5075587;28;20063;-66
2023/04/02 03:36:34;;;;;;;6.07;2.80;;;1.70;99.90;;;;;;5050699;28;20049;-67
2023/04/02 03:39:21;;;;;;;4.43;2.40;;;1.70;99.90;;;;;;5050638;28;20428;-67
2023/04/02 03:42:00;;;;;;;5.00;2.38;;;1.70;99.90;;;;;;5050006;28;20051;-67
2023/04/02 03:44:56;;;;;;;8.00;2.47;;;1.60;99.90;;;;;;5051922;28;20106;-67
2023/04/02 03:47:47;;;;;;;9.35;2.67;;;1.70;99.90;;;;;;5050491;28;20072;-67
2023/04/02 03:50:34;;;;;;;5.72;2.50;;;1.60;99.90;;;;;;5050667;28;20044;-67
2023/04/02 03:53:03;;;;;;;4.50;2.03;;;1.60;99.90;;;;;;5050478;28;20417;-67
2023/04/02 03:55:40;;;;;;;4.72;2.58;;;1.60;99.90;;;;;;5050088;28;20556;-67
2023/04/02 03:58:20;;;;;;;6.15;2.28;;;1.50;99.90;;;;;;5050792;28;20029;-67
2023/04/02 04:01:11;;;;;;;7.90;2.00;;;1.50;99.90;;;;;;5049827;28;20041;-67
2023/04/02 04:03:38;;;;;;;8.73;2.13;;;1.50;99.90;;;;;;5050140;28;20398;-66
2023/04/02 04:06:31;;;;;;;3.85;1.98;;;1.50;99.90;;;;;;5049367;28;20047;-67
2023/04/02 04:09:07;;;;;;;6.80;1.92;;;1.50;99.90;;;;;;5074642;28;20106;-67
2023/04/02 04:11:37;;;;;;;6.30;2.03;;;1.50;99.90;;;;;;5032946;28;20045;-67
2023/04/02 04:14:14;;;;;;;3.50;1.60;;;1.50;99.90;;;;;;5048622;28;20036;-67
2023/04/02 04:16:52;;;;;;;3.85;1.70;;;1.40;99.90;;;;;;5050136;28;20029;-67
2023/04/02 04:19:32;;;;;;;3.88;1.80;;;1.40;99.90;;;;;;5049341;28;20041;-68
2023/04/02 04:22:08;;;;;;;;;;;1.40;99.90;;;;;;5051257;28;20078;-67
2023/04/02 04:24:38;;;;;;;4.63;1.60;;;1.40;99.90;;;;;;5048920;28;20417;-67
2023/04/02 04:27:22;;;;;;;5.68;2.72;;;1.40;99.90;;;;;;5050495;28;20045;-66
2023/04/02 04:29:53;;;;;;;8.10;1.92;;;1.30;99.90;;;;;;5048734;28;20132;-67
2023/04/02 04:32:37;;;;;;;4.70;2.13;;;1.30;99.90;;;;;;5050219;28;20041;-67
2023/04/02 04:35:20;;;;;;;4.55;1.70;;;1.30;99.90;;;;;;5048843;28;20440;-67
2023/04/02 04:37:48;;;;;;;3.60;1.67;;;1.30;99.90;;;;;;5048822;28;20049;-67
2023/04/02 04:40:28;;;;;;;6.57;1.63;;;1.20;99.90;;;;;;5050012;28;20044;-66
2023/04/02 04:42:58;;;;;;;5.90;1.90;;;1.20;99.90;;;;;;5048808;28;20498;-67
2023/04/02 04:45:36;;;;;;;4.15;1.60;;;1.20;99.90;;;;;;5049236;28;20450;-68
2023/04/02 04:48:22;;;;;;;4.43;1.48;;;1.20;99.90;;;;;;5050125;28;20119;-68
2023/04/02 04:50:50;;;;;;;4.60;1.65;;;1.10;99.90;;;;;;5049357;28;20094;-67
2023/04/02 04:53:20;;;;;;;4.45;1.40;;;1.10;99.90;;;;;;5048327;28;20044;-67
2023/04/02 04:55:49;;;;;;;3.47;1.63;;;1.10;99.90;;;;;;5048338;28;20048;-67
2023/04/02 04:58:27;;;;;;;4.82;1.63;;;1.00;99.90;;;;;;5047857;28;20119;-67
2023/04/02 05:00:52;;;;;;;5.60;1.50;;;1.00;99.90;;;;;;5049864;28;20098;-68
2023/04/02 05:03:34;;;;;;;4.60;1.48;;;1.00;99.90;;;;;;5049687;28;20124;-68
2023/04/02 05:06:23;;;;;;;3.90;1.70;;;1.00;99.90;;;;;;5049037;28;20107;-67
2023/04/02 05:08:54;;;;;;;5.63;1.43;;;1.00;99.90;;;;;;5047810;28;20533;-67
2023/04/02 05:11:30;;;;;;;5.80;1.92;;;1.10;99.90;;;;;;5049607;28;20037;-67
2023/04/02 05:14:14;;;;;;;4.65;1.67;;;1.10;99.90;;;;;;5047682;28;20489;-67
2023/04/02 05:16:48;;;;;;;4.78;1.33;;;1.00;99.90;;;;;;5049375;28;20037;-67
2023/04/02 05:19:43;;;;;;;8.10;1.70;;;1.10;99.90;;;;;;5049101;28;20484;-67
2023/04/02 05:22:48;;;;;;;3.40;1.48;;;1.10;99.90;;;;;;5048137;28;20055;-68
2023/04/02 05:25:28;;;;;;;5.05;1.70;;;1.10;99.90;;;;;;5029972;28;20053;-67
2023/04/02 05:28:20;;;;;;;7.82;1.70;;;1.10;99.90;;;;;;5052882;28;20513;-68
2023/04/02 05:30:48;;;;;;;6.63;1.60;;;1.10;99.90;;;;;;5052391;28;20439;-67
2023/04/02 05:33:30;;;;;;;4.25;1.40;;;1.20;99.90;;;;;;5051269;28;20045;-67
2023/04/02 05:36:06;;;;;;;7.53;1.50;;;1.20;99.90;;;;;;5052479;28;20076;-68
2023/04/02 05:38:35;;;;;;;7.97;1.50;;;1.20;99.90;;;;;;5053454;28;20055;-67
2023/04/02 05:41:14;;;;;;;7.47;1.80;;;1.30;99.90;;;;;;5051383;28;20520;-67
2023/04/02 05:43:46;;;;;;;4.50;1.30;;;1.30;99.90;;;;;;5053166;28;20048;-67
2023/04/02 05:46:24;;;;;;;5.28;1.67;;;1.30;99.90;;;;;;5051924;28;20124;-67
2023/04/02 05:48:55;;;;;;;9.30;3.42;;;1.30;99.90;;;;;;5034887;28;20095;-67
2023/04/02 05:51:29;;;;;;;6.97;1.88;;;1.40;99.90;;;;;;5052028;28;20055;-67
2023/04/02 05:54:00;;;;;;;5.72;1.67;;;1.40;99.90;;;;;;5034700;28;20037;-68
2023/04/02 05:56:44;;;;;;;4.45;1.33;;;1.50;99.90;;;;;;5051678;28;20111;-68
2023/04/02 05:59:13;;;;;;;4.32;2.38;;;1.60;99.90;;;;;;5051848;28;20043;-67
2023/04/02 06:02:01;;;;;;;4.68;1.63;;;1.60;99.90;;;;;;5052480;28;20073;-67
2023/04/02 06:05:14;;;;;;;5.50;1.38;;;1.70;99.90;;;;;;5051614;28;20048;-68
2023/04/02 06:08:18;;;;;;;3.63;1.42;;;1.70;99.90;;;;;;5033417;28;20133;-68
2023/04/02 06:10:53;;;;;;;4.97;1.52;;;1.80;99.90;;;;;;5029715;28;20053;-67
2023/04/02 06:13:19;;;;;;;4.35;1.83;;;1.80;99.90;;;;;;5052644;28;20040;-67
2023/04/02 06:15:45;;;;;;;3.10;1.50;;;1.80;99.90;;;;;;5052139;28;20233;-68
2023/04/02 06:18:26;;;;;;;10.20;3.95;;;1.90;99.90;;;;;;5052725;28;20090;-67
2023/04/02 06:20:52;;;;;;;9.57;3.80;;;2.00;99.90;;;;;;5052565;28;20525;-67
2023/04/02 06:23:30;;;;;;;9.25;4.53;;;2.30;99.90;;;;;;5050455;28;20059;-68
2023/04/02 06:26:30;;;;;;;6.50;2.80;;;2.60;99.90;;;;;;5052702;28;20409;-67
2023/04/02 06:29:03;;;;;;;3.53;0.80;;;3.10;99.90;;;;;;5051916;28;20044;-67
2023/04/02 06:31:37;;;;;;;4.60;1.00;;;3.60;99.90;;;;;;5051295;28;20033;-68
2023/04/02 06:34:06;;;;;;;3.80;1.27;;;3.90;99.90;;;;;;5034680;28;20041;-67
2023/04/02 06:36:33;;;;;;;3.67;1.40;;;4.30;99.90;;;;;;5050909;28;20076;-67
2023/04/02 06:39:06;;;;;;;4.55;1.25;;;4.60;99.90;;;;;;5051203;28;20124;-67
2023/04/02 06:41:31;;;;;;;4.63;1.20;;;4.80;99.90;;;;;;5052520;28;20080;-68
2023/04/02 06:44:05;;;;;;;3.95;1.33;;;5.00;99.90;;;;;;5050313;28;20072;-68
2023/04/02 06:46:51;;;;;;;4.50;1.33;;;5.10;99.90;;;;;;5051166;28;20124;-66
2023/04/02 06:49:24;;;;;;;7.53;1.27;;;5.20;99.90;;;;;;5052400;28;20037;-65
2023/04/02 06:51:53;;;;;;;3.17;1.10;;;5.30;99.90;;;;;;5083850;28;20083;-67
2023/04/02 06:54:19;;;;;;;4.60;1.15;;;5.40;99.90;;;;;;5050654;28;20044;-66
2023/04/02 06:56:50;;;;;;;4.60;1.17;;;5.40;99.90;;;;;;5050307;28;20120;-67
2023/04/02 06:59:17;;;;;;;6.53;1.60;;;5.20;99.90;;;;;;5050692;28;20049;-66
2023/04/02 07:01:51;;;;;;;7.15;1.35;;;5.20;99.90;;;;;;5051896;28;20045;-66
2023/04/02 07:04:18;;;;;;;4.15;1.45;;;5.30;99.90;;;;;;5033630;28;20080;-66
2023/04/02 07:06:44;;;;;;;4.35;1.10;;;5.40;99.90;;;;;;5051917;28;20045;-66
2023/04/02 07:09:10;;;;;;;5.03;1.10;;;5.40;99.90;;;;;;5051672;28;20451;-66
2023/04/02 07:11:36;;;;;;;3.92;1.42;;;5.40;99.90;;;;;;5050920;28;20037;-65
2023/04/02 07:14:02;;;;;;;5.38;1.25;;;5.40;99.90;;;;;;5051884;28;20044;-66
2023/04/02 07:16:31;;;;;;;3.92;1.05;;;5.40;99.90;;;;;;5050605;28;20044;-66
2023/04/02 07:19:01;;;;;;;3.65;1.10;;;5.40;99.90;;;;;;5049723;28;20068;-66
2023/04/02 07:21:27;;;;;;;3.90;1.00;;;5.30;99.90;;;;;;5050496;28;20116;-66
2023/04/02 07:23:53;;;;;;;3.50;1.52;;;5.10;99.90;;;;;;5051312;28;20159;-66
2023/04/02 07:26:27;;;;;;;4.40;1.63;;;5.00;99.90;;;;;;5050806;28;20090;-66
2023/04/02 07:28:56;;;;;;;6.32;1.30;;;4.80;99.90;;;;;;5050351;28;20037;-66
2023/04/02 07:31:26;;;;;;;5.35;1.40;;;4.80;99.90;;;;;;5050202;28;20047;-67
2023/04/02 07:33:56;;;;;;;5.18;1.48;;;4.90;99.90;;;;;;5050675;28;20057;-65
2023/04/02 07:36:23;;;;;;;8.30;1.33;;;4.90;99.90;;;;;;5049808;28;20044;-66
2023/04/02 07:38:51;;;;;;;3.58;1.40;;;4.90;99.90;;;;;;5049513;28;20045;-66
2023/04/02 07:41:18;;;;;;;3.90;1.40;;;5.00;99.90;;;;;;5051243;28;20029;-66
2023/04/02 07:43:44;;;;;;;5.20;1.00;;;5.00;99.90;;;;;;5049735;28;20055;-66
2023/04/02 07:46:13;;;;;;;6.82;1.30;;;5.00;99.90;;;;;;5050301;28;20511;-66
2023/04/02 07:48:39;;;;;;;5.78;1.60;;;5.10;99.90;;;;;;5048631;28;20040;-67
2023/04/02 07:51:19;;;;;;;3.70;1.38;;;5.30;99.90;;;;;;5033375;28;20132;-67
2023/04/02 07:53:48;;;;;;;4.93;1.98;;;5.30;99.90;;;;;;5048950;28;20040;-64
2023/04/02 07:56:17;;;;;;;4.78;1.75;;;5.40;99.90;;;;;;5049576;28;20048;-66
2023/04/02 07:58:44;;;;;;;5.82;1.20;;;5.30;99.90;;;;;;5049347;28;20571;-64
2023/04/02 08:01:23;;;;;;;4.93;1.10;;;5.40;99.90;;;;;;5049991;28;20532;-65
2023/04/02 08:03:49;;;;;;;5.38;1.00;;;5.60;99.90;;;;;;5049607;28;20485;-66
2023/04/02 08:06:15;;;;;;;5.03;1.77;;;5.80;99.90;;;;;;5049251;28;20493;-65
2023/04/02 08:08:41;;;;;;;3.97;1.23;;;6.00;99.90;;;;;;5049011;28;20052;-66
2023/04/02 08:11:07;;;;;;;5.43;1.38;;;6.00;99.90;;;;;;5050499;28;20037;-66
2023/04/02 08:13:34;;;;;;;6.05;1.10;;;6.00;99.90;;;;;;5049969;28;20044;-66
2023/04/02 08:16:01;;;;;;;5.07;1.42;;;6.20;99.90;;;;;;5050306;28;20066;-66
2023/04/02 08:18:28;;;;;;;3.50;1.20;;;6.50;99.90;;;;;;5049459;28;20028;-66
2023/04/02 08:20:53;;;;;;;7.03;1.23;;;6.80;99.90;;;;;;5048483;28;20108;-66
2023/04/02 08:23:20;;;;;;;4.93;1.38;;;7.10;99.90;;;;;;5048823;28;20178;-67
2023/04/02 08:25:47;;;;;;;3.70;0.98;;;7.20;99.90;;;;;;5049260;28;20080;-66
2023/04/02 08:28:13;;;;;;;4.50;1.58;;;7.20;99.90;;;;;;5049646;28;20045;-67
2023/04/02 08:30:38;;;;;;;3.13;0.80;;;7.20;99.90;;;;;;5050380;28;20043;-67
2023/04/02 08:33:05;;;;;;;3.30;1.15;;;7.50;99.90;;;;;;5048817;28;20040;-66
2023/04/02 08:35:31;;;;;;;4.32;1.52;;;8.00;99.90;;;;;;5048127;28;20051;-66
2023/04/02 08:37:57;;;;;;;3.45;1.10;;;8.40;99.90;;;;;;5048869;28;20112;-67
2023/04/02 08:40:31;;;;;;;3.67;0.88;;;8.80;99.90;;;;;;5048695;28;20040;-66
2023/04/02 08:43:31;;;;;;;3.28;1.08;;;9.10;99.90;;;;;;5048288;28;20051;-65
2023/04/02 08:46:18;;;;;;;4.60;1.30;;;9.40;99.90;;;;;;5050062;28;20469;-68
2023/04/02 08:48:54;;;;;;;2.03;0.85;;;9.60;99.90;;;;;;5047997;28;20051;-66
2023/04/02 08:51:29;;;;;;;3.55;1.20;;;9.40;99.90;;;;;;5048530;28;20041;-66
2023/04/02 08:54:01;;;;;;;3.60;1.23;;;9.30;99.90;;;;;;5049760;28;20055;-66
2023/04/02 08:56:36;;;;;;;5.28;1.40;;;9.60;99.90;;;;;;5048187;28;20051;-65
2023/04/02 08:59:12;;;;;;;7.00;1.30;;;9.70;99.90;;;;;;5048120;28;20041;-67
2023/04/02 09:01:53;;;;;;;2.92;1.10;;;9.70;99.90;;;;;;5048482;28;20098;-67
2023/04/02 09:04:24;;;;;;;3.17;1.27;;;9.80;99.90;;;;;;5048201;28;20447;-67
2023/04/02 09:06:53;;;;;;;2.22;1.17;;;10.00;99.90;;;;;;5048935;28;20123;-66
2023/04/02 09:09:21;;;;;;;3.67;1.10;;;10.30;99.90;;;;;;5032135;28;20063;-67
2023/04/02 09:11:59;;;;;;;5.43;1.63;;;10.80;99.90;;;;;;5047914;28;20367;-66
2023/04/02 09:14:54;;;;;;;4.18;1.23;;;11.30;99.90;;;;;;5048387;28;20044;-67
2023/04/02 09:17:25;;;;;;;5.60;1.20;;;11.70;99.90;;;;;;5030342;28;20052;-67
2023/04/02 09:20:00;;;;;;;5.57;1.33;;;12.00;99.90;;;;;;5049795;28;20037;-66
2023/04/02 09:22:31;;;;;;;5.13;1.48;;;12.10;99.90;;;;;;5049361;28;20067;-67
2023/04/02 09:24:59;;;;;;;4.88;1.30;;;12.10;99.90;;;;;;5047515;28;20061;-66
2023/04/02 09:27:30;;;;;;;3.42;1.02;;;11.90;99.90;;;;;;5049495;28;20049;-67
2023/04/02 09:30:23;;;;;;;5.70;1.38;;;11.90;99.90;;;;;;5048348;28;20133;-67
2023/04/02 09:33:07;;;;;;;7.40;1.30;;;12.20;99.90;;;;;;5030683;28;20068;-67
2023/04/02 09:35:53;;;;;;;5.00;1.15;;;12.40;99.90;;;;;;5049389;28;20040;-66
2023/04/02 09:38:30;;;;;;;4.80;1.40;;;12.80;99.90;;;;;;5047402;28;20128;-67
2023/04/02 09:41:18;;;;;;;3.00;1.30;;;13.10;99.90;;;;;;5049503;28;20036;-67
2023/04/02 09:43:43;;;;;;;5.55;1.55;;;13.20;99.90;;;;;;5047908;28;20498;-66
2023/04/02 09:46:12;;;;;;;5.93;2.00;;;12.80;99.90;;;;;;5048703;28;20041;-67
2023/04/02 09:48:43;;;;;;;3.88;1.35;;;12.90;99.90;;;;;;5048133;28;20080;-67
2023/04/02 09:51:12;;;;;;;4.03;1.30;;;12.90;99.90;;;;;;5048025;28;20080;-67
2023/04/02 09:53:39;;;;;;;3.33;1.00;;;13.00;99.90;;;;;;5048454;28;20517;-67
2023/04/02 09:56:23;;;;;;;5.45;1.08;;;13.30;99.90;;;;;;5031501;28;20036;-67
2023/04/02 09:59:24;;;;;;;4.40;1.30;;;13.60;99.90;;;;;;5047225;28;20467;-67
2023/04/02 10:01:52;;;;;;;3.22;1.17;;;14.00;99.90;;;;;;5006892;28;20077;-67
2023/04/02 10:04:46;;;;;;;4.50;1.38;;;14.00;99.90;;;;;;4990616;28;20053;-68
2023/04/02 10:07:38;;;;;;;2.90;1.20;;;14.10;99.90;;;;;;5022716;28;20502;-67
2023/04/02 10:10:35;;;;;;;3.35;1.10;;;14.20;99.90;;;;;;4990564;28;20057;-68
2023/04/02 10:13:05;;;;;;;6.07;1.50;;;14.20;99.90;;;;;;5026329;28;20077;-68
2023/04/02 10:15:47;;;;;;;3.85;1.15;;;14.30;99.90;;;;;;5026852;28;20038;-68
2023/04/02 10:18:21;;;;;;;3.75;1.10;;;14.40;99.90;;;;;;4994148;28;20049;-68
2023/04/02 10:20:51;;;;;;;3.67;1.38;;;14.60;99.90;;;;;;5009767;28;20042;-67
2023/04/02 10:23:17;;;;;;;;;;;14.70;99.90;;;;;;5010672;28;20053;-68
2023/04/02 10:25:56;;;;;;;3.55;1.40;;;15.00;99.30;;;;;;4994314;28;19940;-67
2023/04/02 10:28:50;;;;;;;3.25;1.17;;;15.30;99.80;;;;;;5009680;28;20046;-68
2023/04/02 10:31:26;;;;;;;6.20;3.20;;;15.40;98.10;;;;;;4993726;28;20052;-67
2023/04/02 10:34:06;;;;;;;5.03;1.88;;;15.20;97.30;;;;;;5026174;28;20624;-68
2023/04/02 10:36:47;;;;;;;5.38;2.00;;;15.00;96.90;;;;;;5043557;28;20377;-67
2023/04/02 10:39:24;;;;;;;4.63;1.17;;;15.10;96.50;;;;;;5034597;28;20040;-69
2023/04/02 10:42:01;;;;;;;4.20;1.73;;;14.80;94.30;;;;;;5050453;28;20095;-67
2023/04/02 10:45:05;;;;;;;4.05;1.50;;;14.50;94.20;;;;;;5050878;28;20044;-67
2023/04/02 10:47:34;;;;;;;4.15;1.60;;;14.30;94.60;;;;;;5009784;28;20060;-67
2023/04/02 10:50:14;;;;;;;2.70;1.40;;;14.40;94.70;;;;;;4993748;28;20111;-68
2023/04/02 10:53:01;;;;;;;4.10;1.00;;;14.50;94.40;;;;;;4993489;28;20176;-69
2023/04/02 10:55:32;;;;;;;3.90;1.00;;;14.80;96.60;;;;;;5009333;28;20046;-68
2023/04/02 10:58:06;;;;;;;5.50;1.00;;;15.20;97.10;;;;;;5009699;28;20074;-68
2023/04/02 11:00:38;;;;;;;2.95;0.80;;;15.50;96.40;;;;;;5026164;28;20052;-68
2023/04/02 11:03:12;;;;;;;3.35;1.20;;;15.80;95.70;;;;;;5009177;28;20129;-68
2023/04/02 11:05:45;;;;;;;3.65;1.10;;;16.10;95.80;;;;;;5026491;28;20050;-68
2023/04/02 11:08:23;;;;;;;3.97;1.65;;;15.80;89.00;;;;;;4976979;28;20049;-66
2023/04/02 11:11:21;;;;;;;3.78;1.00;;;15.50;92.00;;;;;;4992758;28;20054;-67
2023/04/02 11:14:16;;;;;;;3.22;0.90;;;15.40;91.40;;;;;;5009372;28;20411;-68
2023/04/02 11:16:42;;;;;;;1.52;0.90;;;15.20;91.00;;;;;;5025172;28;20056;-68
2023/04/02 11:19:23;;;;;;;5.53;1.27;;;15.40;92.40;;;;;;5009307;28;20037;-68
2023/04/02 11:21:49;;;;;;;3.28;1.35;;;15.80;93.70;;;;;;4993070;28;20049;-67
2023/04/02 11:24:32;;;;;;;3.70;1.27;;;16.00;94.60;;;;;;5047652;28;20080;-68
2023/04/02 11:27:10;;;;;;;2.97;1.17;;;16.10;92.40;;;;;;5050391;28;20055;-68
2023/04/02 11:29:39;;;;;;;4.20;1.25;;;16.00;92.60;;;;;;5050652;28;20041;-67
2023/04/02 11:32:26;;;;;;;3.78;1.00;;;15.90;93.00;;;;;;5049871;28;20134;-68
2023/04/02 11:34:52;;;;;;;3.30;1.25;;;15.80;92.70;;;;;;5050099;28;20120;-68
2023/04/02 11:37:42;;;;;;;4.53;1.25;;;15.90;93.20;;;;;;5050877;28;20049;-69
2023/04/02 11:40:10;;;;;;;4.85;1.70;;;16.10;93.80;;;;;;5051133;28;20116;-68
2023/04/02 11:42:44;;;;;;;2.33;1.00;;;16.00;91.40;;;;;;5049930;28;20045;-68
2023/04/02 11:45:22;;;;;;;3.30;1.30;;;15.90;92.60;;;;;;5050496;28;20129;-68
2023/04/02 11:48:16;;;;;;;4.65;1.60;;;15.40;92.00;;;;;;5049896;28;20394;-67
2023/04/02 11:50:44;;;;;;;4.03;1.30;;;15.00;89.30;;;;;;5044295;28;20524;-67
2023/04/02 11:53:13;;;;;;;2.22;0.90;;;14.70;90.80;;;;;;5083020;28;20056;-67
2023/04/02 11:55:40;;;;;;;4.90;1.63;;;14.60;92.20;;;;;;5049796;28;20119;-67
2023/04/02 11:58:08;;;;;;;3.08;0.85;;;14.70;89.10;;;;;;5049121;28;20055;-67
2023/04/02 12:01:01;;;;;;;2.63;0.82;;;14.60;90.30;;;;;;5049335;28;20612;-70
2023/04/02 12:03:47;;;;;;;4.78;1.73;;;14.60;91.10;;;;;;5049477;28;20048;-68
2023/04/02 12:06:25;;;;;;;4.53;2.80;;;14.50;87.80;;;;;;5050221;28;20056;-68
2023/04/02 12:09:17;;;;;;;4.03;1.17;;;14.20;89.30;;;;;;5050617;28;20090;-68
2023/04/02 12:11:43;;;;;;;1.60;0.60;;;14.30;91.60;;;;;;5048813;28;20067;-68
2023/04/02 12:14:37;;;;;;;2.92;0.70;;;14.10;84.20;;;;;;5049420;28;20055;-66
2023/04/02 12:17:22;;;;;;;1.63;0.95;;;13.80;90.60;;;;;;5049167;28;20124;-67
2023/04/02 12:19:51;;;;;;;2.35;0.90;;;14.10;91.90;;;;;;5048678;28;20088;-67
2023/04/02 12:22:27;;;;;;;2.28;0.60;;;14.20;92.30;;;;;;5048956;28;20044;-67
2023/04/02 12:25:00;;;;;;;3.10;0.90;;;14.40;92.30;;;;;;5048775;28;20110;-66
2023/04/02 12:27:28;;;;;;;4.80;1.20;;;14.50;92.50;;;;;;5048628;28;20040;-67
2023/04/02 12:30:14;;;;;;;3.35;0.90;;;14.60;92.70;;;;;;5049054;28;20463;-66
2023/04/02 12:32:40;;;;;;;2.13;0.77;;;14.50;92.20;;;;;;5048386;28;20124;-67
2023/04/02 12:35:25;;;;;;;1.80;0.88;;;14.40;92.70;;;;;;5048161;28;20493;-67
2023/04/02 12:37:52;;;;;;;3.25;1.00;;;14.20;92.70;;;;;;5050032;28;20079;-66
2023/04/02 12:40:18;;;;;;;2.28;0.70;;;14.10;94.10;;;;;;5048019;28;20554;-68
2023/04/02 12:42:44;;;;;;;2.75;1.30;;;14.40;93.10;;;;;;5048641;28;20044;-67
2023/04/02 12:45:25;;;;;;;2.60;0.80;;;14.50;92.40;;;;;;5048585;28;20045;-66
2023/04/02 12:47:52;;;;;;;6.43;1.02;;;14.40;93.20;;;;;;5048089;28;20103;-67
2023/04/02 12:50:19;;;;;;;2.90;1.15;;;14.50;93.70;;;;;;5048722;28;20098;-66
2023/04/02 12:52:49;;;;;;;3.00;0.82;;;14.50;93.50;;;;;;5049695;28;20076;-67
2023/04/02 12:55:24;;;;;;;1.15;0.50;;;14.30;92.60;;;;;;5047980;28;20056;-68
2023/04/02 12:57:59;;;;;;;3.15;1.00;;;14.20;90.20;;;;;;5049614;28;20477;-67
2023/04/02 13:00:28;;;;;;;2.13;0.73;;;13.90;90.10;;;;;;5048308;28;20497;-67
2023/04/02 13:03:20;;;;;;;5.03;0.82;;;13.70;90.30;;;;;;5047688;28;20067;-67
2023/04/02 13:05:55;;;;;;;3.55;0.73;;;13.60;89.80;;;;;;5049522;28;20041;-67
2023/04/02 13:08:31;;;;;;;2.13;0.70;;;13.30;90.20;;;;;;5047971;28;20106;-67
2023/04/02 13:11:03;;;;;;;3.70;0.98;;;13.00;88.80;;;;;;5049595;28;20059;-67
2023/04/02 13:13:36;;;;;;;2.78;0.93;;;12.80;91.10;;;;;;5048210;28;20041;-68
2023/04/02 13:16:07;;;;;;;2.45;0.90;;;12.80;91.50;;;;;;5048815;28;20041;-67
2023/04/02 13:18:36;;;;;;;1.40;0.65;;;12.90;92.00;;;;;;5048200;28;20128;-68
2023/04/02 13:21:15;;;;;;;2.88;0.82;;;13.00;90.80;;;;;;5048358;28;20044;-68
2023/04/02 13:23:41;;;;;;;3.50;0.65;;;13.20;92.00;;;;;;5031001;28;20478;-68
2023/04/02 13:26:23;;;;;;;2.55;0.80;;;13.20;92.40;;;;;;5031770;28;20053;-68
2023/04/02 13:29:02;;;;;;;2.67;0.80;;;13.20;93.00;;;;;;5047455;28;20051;-68
2023/04/02 13:31:32;;;;;;;1.67;0.60;;;13.20;93.20;;;;;;5048303;28;20071;-67
2023/04/02 13:33:57;;;;;;;;;;;13.20;93.60;;;;;;5049929;28;20481;-67
2023/04/02 13:36:24;;;;;;;5.53;0.88;;;13.40;94.80;;;;;;5030760;28;19966;-68
2023/04/02 13:38:50;;;;;;;4.05;0.80;;;13.60;93.80;;;;;;5047847;28;20084;-68